sensor_id;sensor_type;location;lat;lon;timestamp;pressure;altitude;pressure_sealevel;temperature;humidity
58955;BME280;45815;52.334;5.024;2023-03-03T00:01:42;102615.19;;;4.48;100.00
58955;BME280;45815;52.334;5.024;2023-03-03T00:04:07;102611.78;;;4.49;100.00
58955;BME280;45815;52.334;5.024;2023-03-03T00:06:32;102610.91;;;4.48;100.00
58955;BME280;45815;52.334;5.024;2023-03-03T00:08:58;102614.97;;;4.44;100.00
58955;BME280;45815;52.334;5.024;2023-03-03T00:11:23;102615.66;;;4.42;100.00
58955;BME280;45815;52.334;5.024;2023-03-03T00:13:51;102619.94;;;4.41;100.00
58955;BME280;45815;52.334;5.024;2023-03-03T00:18:52;102615.75;;;4.43;100.00
58955;BME280;45815;52.334;5.024;2023-03-03T00:21:22;102614.06;;;4.44;100.00
58955;BME280;45815;52.334;5.024;2023-03-03T00:23:51;102618.38;;;4.43;100.00
58955;BME280;45815;52.334;5.024;2023-03-03T00:26:33;102609.22;;;4.37;100.00
58955;BME280;45815;52.334;5.024;2023-03-03T00:29:01;102612.03;;;4.40;100.00
58955;BME280;45815;52.334;5.024;2023-03-03T00:31:33;102610.09;;;4.37;100.00
58955;BME280;45815;52.334;5.024;2023-03-03T00:36:41;102618.94;;;4.39;100.00
58955;BME280;45815;52.334;5.024;2023-03-03T00:41:42;102596.69;;;4.31;100.00
58955;BME280;45815;52.334;5.024;2023-03-03T00:44:31;102624.47;;;4.32;100.00
58955;BME280;45815;52.334;5.024;2023-03-03T00:47:11;102628.22;;;4.36;100.00
58955;BME280;45815;52.334;5.024;2023-03-03T00:49:38;102627.63;;;4.40;100.00
58955;BME280;45815;52.334;5.024;2023-03-03T00:52:15;102625.94;;;4.40;100.00
58955;BME280;45815;52.334;5.024;2023-03-03T00:54:41;102621.88;;;4.32;100.00
58955;BME280;45815;52.334;5.024;2023-03-03T00:57:07;102630.13;;;4.38;100.00
58955;BME280;45815;52.334;5.024;2023-03-03T00:59:33;102627.63;;;4.40;100.00
58955;BME280;45815;52.334;5.024;2023-03-03T01:01:58;102629.25;;;4.38;100.00
58955;BME280;45815;52.334;5.024;2023-03-03T01:04:24;102637.13;;;4.39;100.00
58955;BME280;45815;52.334;5.024;2023-03-03T01:06:50;102634.66;;;4.41;100.00
58955;BME280;45815;52.334;5.024;2023-03-03T01:09:15;102647.09;;;4.45;100.00
58955;BME280;45815;52.334;5.024;2023-03-03T01:11:41;102639.38;;;4.47;100.00
58955;BME280;45815;52.334;5.024;2023-03-03T01:14:06;102631.00;;;4.51;100.00
58955;BME280;45815;52.334;5.024;2023-03-03T01:16:33;102626.72;;;4.51;100.00
58955;BME280;45815;52.334;5.024;2023-03-03T01:18:58;102628.28;;;4.49;100.00
58955;BME280;45815;52.334;5.024;2023-03-03T01:21:24;102642.56;;;4.54;100.00
58955;BME280;45815;52.334;5.024;2023-03-03T01:23:49;102636.22;;;4.51;100.00
58955;BME280;45815;52.334;5.024;2023-03-03T01:26:15;102631.72;;;4.36;100.00
58955;BME280;45815;52.334;5.024;2023-03-03T01:28:40;102640.75;;;4.41;100.00
58955;BME280;45815;52.334;5.024;2023-03-03T01:31:06;102644.16;;;4.40;100.00
58955;BME280;45815;52.334;5.024;2023-03-03T01:33:33;102643.22;;;4.40;100.00
58955;BME280;45815;52.334;5.024;2023-03-03T01:35:58;102650.25;;;4.41;100.00
58955;BME280;45815;52.334;5.024;2023-03-03T01:38:24;102644.94;;;4.39;100.00
58955;BME280;45815;52.334;5.024;2023-03-03T01:40:54;102651.94;;;4.40;100.00
58955;BME280;45815;52.334;5.024;2023-03-03T01:43:20;102651.72;;;4.37;100.00
58955;BME280;45815;52.334;5.024;2023-03-03T01:48:39;102648.00;;;4.22;100.00
58955;BME280;45815;52.334;5.024;2023-03-03T01:51:25;102643.47;;;4.31;100.00
58955;BME280;45815;52.334;5.024;2023-03-03T01:53:59;102644.59;;;4.23;100.00
58955;BME280;45815;52.334;5.024;2023-03-03T01:56:26;102643.00;;;4.25;100.00
58955;BME280;45815;52.334;5.024;2023-03-03T01:58:57;102644.16;;;4.17;100.00
58955;BME280;45815;52.334;5.024;2023-03-03T02:01:25;102639.41;;;4.11;100.00
58955;BME280;45815;52.334;5.024;2023-03-03T02:03:52;102642.13;;;4.13;100.00
58955;BME280;45815;52.334;5.024;2023-03-03T02:06:21;102620.19;;;3.97;100.00
58955;BME280;45815;52.334;5.024;2023-03-03T02:11:36;102646.16;;;4.09;100.00
58955;BME280;45815;52.334;5.024;2023-03-03T02:14:02;102640.41;;;4.13;100.00
58955;BME280;45815;52.334;5.024;2023-03-03T02:16:27;102644.59;;;4.11;100.00
58955;BME280;45815;52.334;5.024;2023-03-03T02:18:53;102640.97;;;4.09;100.00
58955;BME280;45815;52.334;5.024;2023-03-03T02:21:21;102636.91;;;4.13;100.00
58955;BME280;45815;52.334;5.024;2023-03-03T02:23:59;102638.84;;;4.15;100.00
58955;BME280;45815;52.334;5.024;2023-03-03T02:26:29;102643.00;;;4.13;100.00
58955;BME280;45815;52.334;5.024;2023-03-03T02:29:00;102635.09;;;4.12;100.00
58955;BME280;45815;52.334;5.024;2023-03-03T02:31:29;102632.28;;;4.09;100.00
58955;BME280;45815;52.334;5.024;2023-03-03T02:33:55;102631.25;;;4.07;100.00
58955;BME280;45815;52.334;5.024;2023-03-03T02:36:24;102642.13;;;4.13;100.00
58955;BME280;45815;52.334;5.024;2023-03-03T02:39:01;102640.06;;;4.09;100.00
58955;BME280;45815;52.334;5.024;2023-03-03T02:42:02;102643.56;;;3.97;100.00
58955;BME280;45815;52.334;5.024;2023-03-03T02:44:38;102622.69;;;4.08;100.00
58955;BME280;45815;52.334;5.024;2023-03-03T02:47:03;102637.25;;;4.06;100.00
58955;BME280;45815;52.334;5.024;2023-03-03T02:49:32;102636.38;;;4.05;100.00
58955;BME280;45815;52.334;5.024;2023-03-03T02:51:59;102637.00;;;4.02;100.00
58955;BME280;45815;52.334;5.024;2023-03-03T02:54:26;102635.44;;;4.05;100.00
58955;BME280;45815;52.334;5.024;2023-03-03T02:56:52;102632.41;;;3.98;100.00
58955;BME280;45815;52.334;5.024;2023-03-03T02:59:19;102631.72;;;4.01;100.00
58955;BME280;45815;52.334;5.024;2023-03-03T03:01:47;102622.00;;;3.98;100.00
58955;BME280;45815;52.334;5.024;2023-03-03T03:04:17;102624.00;;;4.02;100.00
58955;BME280;45815;52.334;5.024;2023-03-03T03:06:46;102631.81;;;4.02;100.00
58955;BME280;45815;52.334;5.024;2023-03-03T03:09:14;102633.63;;;4.04;100.00
58955;BME280;45815;52.334;5.024;2023-03-03T03:11:40;102634.41;;;4.02;100.00
58955;BME280;45815;52.334;5.024;2023-03-03T03:14:08;102636.91;;;4.01;100.00
58955;BME280;45815;52.334;5.024;2023-03-03T03:16:33;102630.81;;;4.00;100.00
58955;BME280;45815;52.334;5.024;2023-03-03T03:19:00;102629.00;;;3.99;100.00
58955;BME280;45815;52.334;5.024;2023-03-03T03:21:26;102620.66;;;4.04;100.00
58955;BME280;45815;52.334;5.024;2023-03-03T03:23:52;102623.59;;;3.96;100.00
58955;BME280;45815;52.334;5.024;2023-03-03T03:26:18;102636.66;;;3.98;100.00
58955;BME280;45815;52.334;5.024;2023-03-03T03:28:47;102622.56;;;3.94;100.00
58955;BME280;45815;52.334;5.024;2023-03-03T03:31:14;102630.56;;;3.97;100.00
58955;BME280;45815;52.334;5.024;2023-03-03T03:33:40;102635.78;;;3.97;100.00
58955;BME280;45815;52.334;5.024;2023-03-03T03:36:06;102632.16;;;3.95;100.00
58955;BME280;45815;52.334;5.024;2023-03-03T03:38:34;102642.31;;;3.92;100.00
58955;BME280;45815;52.334;5.024;2023-03-03T03:41:02;102638.94;;;3.93;100.00
58955;BME280;45815;52.334;5.024;2023-03-03T03:43:29;102647.28;;;3.89;100.00
58955;BME280;45815;52.334;5.024;2023-03-03T03:45:54;102647.97;;;3.87;100.00
58955;BME280;45815;52.334;5.024;2023-03-03T03:48:20;102640.94;;;3.86;100.00
58955;BME280;45815;52.334;5.024;2023-03-03T03:50:48;102645.03;;;3.82;100.00
58955;BME280;45815;52.334;5.024;2023-03-03T03:53:13;102649.97;;;3.79;100.00
58955;BME280;45815;52.334;5.024;2023-03-03T03:55:39;102650.22;;;3.82;100.00
58955;BME280;45815;52.334;5.024;2023-03-03T03:58:04;102641.72;;;3.73;100.00
58955;BME280;45815;52.334;5.024;2023-03-03T04:00:30;102649.19;;;3.80;100.00
58955;BME280;45815;52.334;5.024;2023-03-03T04:02:58;102655.41;;;3.82;100.00
58955;BME280;45815;52.334;5.024;2023-03-03T04:05:24;102650.22;;;3.82;100.00
58955;BME280;45815;52.334;5.024;2023-03-03T04:07:50;102654.84;;;3.86;100.00
58955;BME280;45815;52.334;5.024;2023-03-03T04:10:17;102651.13;;;3.83;100.00
58955;BME280;45815;52.334;5.024;2023-03-03T04:12:43;102643.53;;;3.74;100.00
58955;BME280;45815;52.334;5.024;2023-03-03T04:15:12;102637.31;;;3.72;100.00
58955;BME280;45815;52.334;5.024;2023-03-03T04:17:38;102660.34;;;3.79;100.00
58955;BME280;45815;52.334;5.024;2023-03-03T04:20:05;102660.94;;;3.75;100.00
58955;BME280;45815;52.334;5.024;2023-03-03T04:22:31;102657.31;;;3.73;100.00
58955;BME280;45815;52.334;5.024;2023-03-03T04:25:03;102653.69;;;3.71;100.00
58955;BME280;45815;52.334;5.024;2023-03-03T04:27:32;102638.78;;;3.68;100.00
58955;BME280;45815;52.334;5.024;2023-03-03T04:29:58;102658.34;;;3.75;100.00
58955;BME280;45815;52.334;5.024;2023-03-03T04:32:24;102659.13;;;3.74;100.00
58955;BME280;45815;52.334;5.024;2023-03-03T04:34:50;102663.41;;;3.73;100.00
58955;BME280;45815;52.334;5.024;2023-03-03T04:37:16;102660.69;;;3.72;100.00
58955;BME280;45815;52.334;5.024;2023-03-03T04:39:41;102664.22;;;3.72;100.00
58955;BME280;45815;52.334;5.024;2023-03-03T04:42:07;102661.47;;;3.71;100.00
58955;BME280;45815;52.334;5.024;2023-03-03T04:44:32;102665.09;;;3.73;100.00
58955;BME280;45815;52.334;5.024;2023-03-03T04:46:58;102664.31;;;3.74;100.00
58955;BME280;45815;52.334;5.024;2023-03-03T04:49:24;102661.97;;;3.77;100.00
58955;BME280;45815;52.334;5.024;2023-03-03T04:51:49;102669.75;;;3.77;100.00
58955;BME280;45815;52.334;5.024;2023-03-03T04:54:15;102668.06;;;3.77;100.00
58955;BME280;45815;52.334;5.024;2023-03-03T04:56:41;102670.75;;;3.79;100.00
58955;BME280;45815;52.334;5.024;2023-03-03T04:59:07;102675.25;;;3.81;100.00
58955;BME280;45815;52.334;5.024;2023-03-03T05:01:32;102668.41;;;3.82;100.00
58955;BME280;45815;52.334;5.024;2023-03-03T05:03:58;102672.56;;;3.80;100.00
58955;BME280;45815;52.334;5.024;2023-03-03T05:06:24;102650.97;;;3.69;100.00
58955;BME280;45815;52.334;5.024;2023-03-03T05:08:49;102666.47;;;3.79;100.00
58955;BME280;45815;52.334;5.024;2023-03-03T05:11:15;102665.81;;;3.82;100.00
58955;BME280;45815;52.334;5.024;2023-03-03T05:13:40;102660.84;;;3.85;100.00
58955;BME280;45815;52.334;5.024;2023-03-03T05:16:06;102659.94;;;3.85;100.00
58955;BME280;45815;52.334;5.024;2023-03-03T05:18:31;102660.63;;;3.82;100.00
58955;BME280;45815;52.334;5.024;2023-03-03T05:20:57;102662.41;;;3.83;100.00
58955;BME280;45815;52.334;5.024;2023-03-03T05:23:22;102662.41;;;3.83;100.00
58955;BME280;45815;52.334;5.024;2023-03-03T05:25:49;102664.22;;;3.84;100.00
58955;BME280;45815;52.334;5.024;2023-03-03T05:28:15;102672.13;;;3.86;100.00
58955;BME280;45815;52.334;5.024;2023-03-03T05:30:40;102672.38;;;3.89;100.00
58955;BME280;45815;52.334;5.024;2023-03-03T05:33:06;102663.66;;;3.88;100.00
58955;BME280;45815;52.334;5.024;2023-03-03T05:35:32;102669.66;;;3.87;100.00
58955;BME280;45815;52.334;5.024;2023-03-03T05:37:57;102666.25;;;3.88;100.00
58955;BME280;45815;52.334;5.024;2023-03-03T05:40:24;102666.25;;;3.88;100.00
58955;BME280;45815;52.334;5.024;2023-03-03T05:42:50;102669.88;;;3.90;100.00
58955;BME280;45815;52.334;5.024;2023-03-03T05:45:16;102668.97;;;3.90;100.00
58955;BME280;45815;52.334;5.024;2023-03-03T05:47:45;102669.19;;;3.93;100.00
58955;BME280;45815;52.334;5.024;2023-03-03T05:50:10;102669.31;;;3.94;100.00
58955;BME280;45815;52.334;5.024;2023-03-03T05:52:36;102669.66;;;3.99;100.00
58955;BME280;45815;52.334;5.024;2023-03-03T05:55:02;102673.97;;;3.98;100.00
58955;BME280;45815;52.334;5.024;2023-03-03T05:57:28;102677.34;;;3.97;100.00
58955;BME280;45815;52.334;5.024;2023-03-03T05:59:53;102682.31;;;3.94;100.00
58955;BME280;45815;52.334;5.024;2023-03-03T06:02:18;102683.13;;;3.93;100.00
58955;BME280;45815;52.334;5.024;2023-03-03T06:04:44;102682.09;;;3.91;100.00
58955;BME280;45815;52.334;5.024;2023-03-03T06:07:09;102675.75;;;3.88;100.00
58955;BME280;45815;52.334;5.024;2023-03-03T06:09:35;102689.97;;;3.93;100.00
58955;BME280;45815;52.334;5.024;2023-03-03T06:12:01;102682.09;;;3.91;100.00
58955;BME280;45815;52.334;5.024;2023-03-03T06:14:26;102679.59;;;3.93;100.00
58955;BME280;45815;52.334;5.024;2023-03-03T06:16:51;102675.31;;;3.93;100.00
58955;BME280;45815;52.334;5.024;2023-03-03T06:19:17;102685.59;;;3.92;100.00
58955;BME280;45815;52.334;5.024;2023-03-03T06:21:42;102669.19;;;3.93;100.00
58955;BME280;45815;52.334;5.024;2023-03-03T06:24:08;102676.31;;;3.95;100.00
58955;BME280;45815;52.334;5.024;2023-03-03T06:26:33;102672.13;;;3.97;100.00
58955;BME280;45815;52.334;5.024;2023-03-03T06:28:59;102675.09;;;4.02;100.00
58955;BME280;45815;52.334;5.024;2023-03-03T06:31:26;102671.47;;;4.00;100.00
58955;BME280;45815;52.334;5.024;2023-03-03T06:33:52;102677.25;;;4.08;100.00
58955;BME280;45815;52.334;5.024;2023-03-03T06:36:18;102679.94;;;4.09;100.00
58955;BME280;45815;52.334;5.024;2023-03-03T06:38:44;102680.88;;;4.10;100.00
58955;BME280;45815;52.334;5.024;2023-03-03T06:41:10;102684.47;;;4.12;100.00
58955;BME280;45815;52.334;5.024;2023-03-03T06:43:35;102691.38;;;4.11;100.00
58955;BME280;45815;52.334;5.024;2023-03-03T06:46:02;102686.28;;;4.13;100.00
58955;BME280;45815;52.334;5.024;2023-03-03T06:48:29;102689.91;;;4.15;100.00
58955;BME280;45815;52.334;5.024;2023-03-03T06:50:54;102693.53;;;4.17;100.00
58955;BME280;45815;52.334;5.024;2023-03-03T06:53:19;102699.97;;;4.22;100.00
58955;BME280;45815;52.334;5.024;2023-03-03T06:55:45;102698.63;;;4.27;100.00
58955;BME280;45815;52.334;5.024;2023-03-03T06:58:13;102699.88;;;4.32;100.00
58955;BME280;45815;52.334;5.024;2023-03-03T07:00:41;102696.50;;;4.33;100.00
58955;BME280;45815;52.334;5.024;2023-03-03T07:03:11;102694.53;;;4.31;100.00
58955;BME280;45815;52.334;5.024;2023-03-03T07:05:38;102706.09;;;4.34;100.00
58955;BME280;45815;52.334;5.024;2023-03-03T07:08:18;102714.91;;;4.36;100.00
58955;BME280;45815;52.334;5.024;2023-03-03T07:10:45;102696.72;;;4.36;100.00
58955;BME280;45815;52.334;5.024;2023-03-03T07:13:18;102714.56;;;4.43;100.00
58955;BME280;45815;52.334;5.024;2023-03-03T07:15:44;102712.78;;;4.42;100.00
58955;BME280;45815;52.334;5.024;2023-03-03T07:18:36;102721.00;;;4.37;100.00
58955;BME280;45815;52.334;5.024;2023-03-03T07:21:15;102719.63;;;4.42;100.00
58955;BME280;45815;52.334;5.024;2023-03-03T07:23:41;102718.06;;;4.44;100.00
58955;BME280;45815;52.334;5.024;2023-03-03T07:26:16;102723.94;;;4.41;100.00
58955;BME280;45815;52.334;5.024;2023-03-03T07:28:53;102724.63;;;4.39;100.00
58955;BME280;45815;52.334;5.024;2023-03-03T07:31:33;102727.34;;;4.40;100.00
58955;BME280;45815;52.334;5.024;2023-03-03T07:34:01;102732.09;;;4.46;100.00
58955;BME280;45815;52.334;5.024;2023-03-03T07:36:36;102716.69;;;4.37;100.00
58955;BME280;45815;52.334;5.024;2023-03-03T07:41:50;102740.91;;;4.48;100.00
58955;BME280;45815;52.334;5.024;2023-03-03T07:44:32;102744.19;;;4.46;100.00
58955;BME280;45815;52.334;5.024;2023-03-03T07:47:14;102747.81;;;4.48;100.00
58955;BME280;45815;52.334;5.024;2023-03-03T07:49:41;102751.09;;;4.57;100.00
58955;BME280;45815;52.334;5.024;2023-03-03T07:54:50;102753.34;;;4.64;100.00
58955;BME280;45815;52.334;5.024;2023-03-03T07:59:47;102755.63;;;4.71;100.00
58955;BME280;45815;52.334;5.024;2023-03-03T08:04:48;102750.16;;;4.80;100.00
58955;BME280;45815;52.334;5.024;2023-03-03T08:07:17;102758.75;;;4.91;100.00
58955;BME280;45815;52.334;5.024;2023-03-03T08:09:59;102761.00;;;4.98;100.00
58955;BME280;45815;52.334;5.024;2023-03-03T08:12:38;102758.94;;;5.05;100.00
58955;BME280;45815;52.334;5.024;2023-03-03T08:15:24;102752.44;;;4.99;100.00
58955;BME280;45815;52.334;5.024;2023-03-03T08:17:53;102771.19;;;5.18;100.00
58955;BME280;45815;52.334;5.024;2023-03-03T08:20:45;102776.16;;;5.15;100.00
58955;BME280;45815;52.334;5.024;2023-03-03T08:23:13;102764.47;;;5.22;100.00
58955;BME280;45815;52.334;5.024;2023-03-03T08:25:39;102765.81;;;5.28;100.00
58955;BME280;45815;52.334;5.024;2023-03-03T08:28:10;102763.00;;;5.25;100.00
58955;BME280;45815;52.334;5.024;2023-03-03T08:30:37;102770.94;;;5.27;100.00
58955;BME280;45815;52.334;5.024;2023-03-03T08:33:03;102770.13;;;5.28;100.00
58955;BME280;45815;52.334;5.024;2023-03-03T08:35:29;102771.72;;;5.26;100.00
58955;BME280;45815;52.334;5.024;2023-03-03T08:37:54;102779.66;;;5.27;100.00
58955;BME280;45815;52.334;5.024;2023-03-03T08:40:20;102773.41;;;5.25;100.00
58955;BME280;45815;52.334;5.024;2023-03-03T08:42:45;102768.66;;;5.32;100.00
58955;BME280;45815;52.334;5.024;2023-03-03T08:45:11;102777.25;;;5.31;100.00
58955;BME280;45815;52.334;5.024;2023-03-03T08:47:37;102771.47;;;5.35;100.00
58955;BME280;45815;52.334;5.024;2023-03-03T08:50:03;102777.13;;;5.41;100.00
58955;BME280;45815;52.334;5.024;2023-03-03T08:52:29;102781.09;;;5.36;100.00
58955;BME280;45815;52.334;5.024;2023-03-03T08:54:55;102779.28;;;5.35;100.00
58955;BME280;45815;52.334;5.024;2023-03-03T08:57:20;102771.59;;;5.36;100.00
58955;BME280;45815;52.334;5.024;2023-03-03T08:59:45;102776.78;;;5.48;100.00
58955;BME280;45815;52.334;5.024;2023-03-03T09:02:12;102784.44;;;5.58;100.00
58955;BME280;45815;52.334;5.024;2023-03-03T09:04:37;102782.63;;;5.57;100.00
58955;BME280;45815;52.334;5.024;2023-03-03T09:07:03;102786.00;;;5.56;100.00
58955;BME280;45815;52.334;5.024;2023-03-03T09:09:28;102786.22;;;5.59;100.00
58955;BME280;45815;52.334;5.024;2023-03-03T09:11:58;102773.56;;;5.52;100.00
58955;BME280;45815;52.334;5.024;2023-03-03T09:14:28;102786.66;;;5.65;100.00
58955;BME280;45815;52.334;5.024;2023-03-03T09:16:55;102790.28;;;5.67;100.00
58955;BME280;45815;52.334;5.024;2023-03-03T09:19:29;102789.25;;;5.65;100.00
58955;BME280;45815;52.334;5.024;2023-03-03T09:22:20;102795.28;;;5.64;100.00
58955;BME280;45815;52.334;5.024;2023-03-03T09:24:47;102781.97;;;5.73;100.00
58955;BME280;45815;52.334;5.024;2023-03-03T09:27:30;102781.91;;;5.71;100.00
58955;BME280;45815;52.334;5.024;2023-03-03T09:30:15;102786.34;;;5.86;100.00
58955;BME280;45815;52.334;5.024;2023-03-03T09:32:52;102786.28;;;6.09;100.00
58955;BME280;45815;52.334;5.024;2023-03-03T09:35:35;102782.66;;;6.07;100.00
58955;BME280;45815;52.334;5.024;2023-03-03T09:38:16;102780.94;;;6.08;100.00
58955;BME280;45815;52.334;5.024;2023-03-03T09:49:32;102775.63;;;6.71;100.00
58955;BME280;45815;52.334;5.024;2023-03-03T10:03:01;102762.41;;;7.65;100.00
58955;BME280;45815;52.334;5.024;2023-03-03T10:21:53;102772.38;;;8.58;100.00
58955;BME280;45815;52.334;5.024;2023-03-03T10:24:30;102774.44;;;8.78;100.00
58955;BME280;45815;52.334;5.024;2023-03-03T10:32:45;102770.06;;;8.94;100.00
58955;BME280;45815;52.334;5.024;2023-03-03T10:38:19;102766.75;;;9.13;100.00
58955;BME280;45815;52.334;5.024;2023-03-03T10:40:52;102772.97;;;9.29;100.00
58955;BME280;45815;52.334;5.024;2023-03-03T10:43:55;102769.03;;;9.38;100.00
58955;BME280;45815;52.334;5.024;2023-03-03T10:54:48;102771.09;;;9.76;100.00
58955;BME280;45815;52.334;5.024;2023-03-03T11:05:43;102768.78;;;10.31;100.00
58955;BME280;45815;52.334;5.024;2023-03-03T11:08:23;102764.00;;;10.41;100.00
58955;BME280;45815;52.334;5.024;2023-03-03T11:13:38;102760.47;;;10.58;100.00
58955;BME280;45815;52.334;5.024;2023-03-03T11:16:24;102739.47;;;10.58;100.00
58955;BME280;45815;52.334;5.024;2023-03-03T11:19:09;102762.44;;;10.80;100.00
58955;BME280;45815;52.334;5.024;2023-03-03T11:21:58;102761.09;;;10.70;100.00
58955;BME280;45815;52.334;5.024;2023-03-03T11:35:46;102748.91;;;11.65;100.00
58955;BME280;45815;52.334;5.024;2023-03-03T11:41:03;102752.22;;;11.61;100.00
58955;BME280;45815;52.334;5.024;2023-03-03T11:43:43;102755.06;;;11.66;100.00
58955;BME280;45815;52.334;5.024;2023-03-03T11:46:15;102749.44;;;11.77;100.00
58955;BME280;45815;52.334;5.024;2023-03-03T11:48:58;102745.03;;;11.96;100.00
58955;BME280;45815;52.334;5.024;2023-03-03T11:54:26;102750.50;;;12.62;100.00
58955;BME280;45815;52.334;5.024;2023-03-03T11:57:42;102735.56;;;13.06;100.00
58955;BME280;45815;52.334;5.024;2023-03-03T12:11:22;102734.31;;;12.53;100.00
58955;BME280;45815;52.334;5.024;2023-03-03T12:16:55;102732.97;;;12.01;100.00
58955;BME280;45815;52.334;5.024;2023-03-03T12:22:31;102738.81;;;11.55;100.00
58955;BME280;45815;52.334;5.024;2023-03-03T12:25:18;102734.16;;;11.30;100.00
58955;BME280;45815;52.334;5.024;2023-03-03T12:27:56;102730.13;;;11.18;100.00
58955;BME280;45815;52.334;5.024;2023-03-03T12:38:37;102726.19;;;10.55;100.00
58955;BME280;45815;52.334;5.024;2023-03-03T12:41:32;102719.38;;;10.41;100.00
58955;BME280;45815;52.334;5.024;2023-03-03T12:44:29;102727.09;;;10.21;100.00
58955;BME280;45815;52.334;5.024;2023-03-03T13:00:53;102715.41;;;10.14;100.00
58955;BME280;45815;52.334;5.024;2023-03-03T13:05:59;102714.78;;;10.02;100.00
58955;BME280;45815;52.334;5.024;2023-03-03T13:08:48;102722.81;;;9.89;100.00
58955;BME280;45815;52.334;5.024;2023-03-03T13:14:17;102716.84;;;9.75;100.00
58955;BME280;45815;52.334;5.024;2023-03-03T13:19:30;102722.44;;;9.65;100.00
58955;BME280;45815;52.334;5.024;2023-03-03T13:22:07;102716.88;;;9.59;100.00
58955;BME280;45815;52.334;5.024;2023-03-03T13:27:27;102712.94;;;9.34;100.00
58955;BME280;45815;52.334;5.024;2023-03-03T13:33:13;102712.50;;;9.26;100.00
58955;BME280;45815;52.334;5.024;2023-03-03T13:35:54;102718.66;;;9.27;100.00
58955;BME280;45815;52.334;5.024;2023-03-03T13:38:40;102708.00;;;9.24;100.00
58955;BME280;45815;52.334;5.024;2023-03-03T13:41:22;102716.13;;;9.28;100.00
58955;BME280;45815;52.334;5.024;2023-03-03T13:44:01;102710.13;;;9.31;100.00
58955;BME280;45815;52.334;5.024;2023-03-03T13:46:33;102712.69;;;9.29;100.00
58955;BME280;45815;52.334;5.024;2023-03-03T13:49:36;102710.53;;;9.22;100.00
58955;BME280;45815;52.334;5.024;2023-03-03T13:52:32;102707.69;;;9.18;100.00
58955;BME280;45815;52.334;5.024;2023-03-03T13:55:39;102712.00;;;9.17;100.00
58955;BME280;45815;52.334;5.024;2023-03-03T13:58:53;102699.50;;;9.28;100.00
58955;BME280;45815;52.334;5.024;2023-03-03T14:01:08;102697.78;;;9.28;100.00
58955;BME280;45815;52.334;5.024;2023-03-03T14:06:17;102705.63;;;9.28;100.00
58955;BME280;45815;52.334;5.024;2023-03-03T14:17:05;102693.75;;;9.19;100.00
58955;BME280;45815;52.334;5.024;2023-03-03T14:19:49;102691.38;;;9.23;100.00
58955;BME280;45815;52.334;5.024;2023-03-03T14:22:44;102689.13;;;8.98;100.00
58955;BME280;45815;52.334;5.024;2023-03-03T14:25:13;102696.88;;;9.12;100.00
58955;BME280;45815;52.334;5.024;2023-03-03T14:28:01;102698.91;;;9.17;100.00
58955;BME280;45815;52.334;5.024;2023-03-03T14:30:33;102687.78;;;9.38;100.00
58955;BME280;45815;52.334;5.024;2023-03-03T14:33:13;102686.16;;;9.40;100.00
58955;BME280;45815;52.334;5.024;2023-03-03T14:35:59;102691.63;;;9.28;100.00
58955;BME280;45815;52.334;5.024;2023-03-03T14:41:37;102681.81;;;9.40;100.00
58955;BME280;45815;52.334;5.024;2023-03-03T14:47:06;102683.38;;;9.53;100.00
58955;BME280;45815;52.334;5.024;2023-03-03T14:49:38;102678.88;;;9.34;100.00
58955;BME280;45815;52.334;5.024;2023-03-03T14:54:41;102677.66;;;9.27;100.00
58955;BME280;45815;52.334;5.024;2023-03-03T15:07:43;102665.94;;;9.21;100.00
58955;BME280;45815;52.334;5.024;2023-03-03T15:10:09;102663.94;;;9.17;100.00
58955;BME280;45815;52.334;5.024;2023-03-03T15:12:39;102660.53;;;9.18;100.00
58955;BME280;45815;52.334;5.024;2023-03-03T15:17:37;102653.63;;;9.20;100.00
58955;BME280;45815;52.334;5.024;2023-03-03T15:20:21;102648.13;;;9.15;100.00
58955;BME280;45815;52.334;5.024;2023-03-03T15:36:39;102642.56;;;8.93;100.00
58955;BME280;45815;52.334;5.024;2023-03-03T15:47:39;102634.47;;;9.04;100.00
58955;BME280;45815;52.334;5.024;2023-03-03T16:01:28;102634.69;;;8.76;100.00
58955;BME280;45815;52.334;5.024;2023-03-03T16:03:56;102635.75;;;8.80;100.00
58955;BME280;45815;52.334;5.024;2023-03-03T16:06:37;102635.44;;;8.59;100.00
58955;BME280;45815;52.334;5.024;2023-03-03T16:09:28;102633.41;;;8.38;100.00
58955;BME280;45815;52.334;5.024;2023-03-03T16:12:24;102635.50;;;8.44;100.00
58955;BME280;45815;52.334;5.024;2023-03-03T16:15:04;102629.97;;;8.39;100.00
58955;BME280;45815;52.334;5.024;2023-03-03T16:18:06;102636.25;;;8.27;100.00
58955;BME280;45815;52.334;5.024;2023-03-03T16:20:51;102626.47;;;8.24;100.00
58955;BME280;45815;52.334;5.024;2023-03-03T16:23:47;102635.50;;;8.14;100.00
58955;BME280;45815;52.334;5.024;2023-03-03T16:31:52;102631.34;;;8.33;100.00
58955;BME280;45815;52.334;5.024;2023-03-03T16:34:20;102627.41;;;8.24;100.00
58955;BME280;45815;52.334;5.024;2023-03-03T16:39:47;102633.56;;;8.10;100.00
58955;BME280;45815;52.334;5.024;2023-03-03T16:42:31;102646.91;;;7.85;100.00
58955;BME280;45815;52.334;5.024;2023-03-03T16:56:36;102638.25;;;7.71;100.00
58955;BME280;45815;52.334;5.024;2023-03-03T17:18:04;102650.13;;;7.23;100.00
58955;BME280;45815;52.334;5.024;2023-03-03T17:20:46;102648.22;;;7.21;100.00
58955;BME280;45815;52.334;5.024;2023-03-03T17:31:49;102659.44;;;7.05;100.00
58955;BME280;45815;52.334;5.024;2023-03-03T17:34:20;102671.53;;;6.89;100.00
58955;BME280;45815;52.334;5.024;2023-03-03T17:46:44;102675.31;;;7.08;100.00
58955;BME280;45815;52.334;5.024;2023-03-03T17:59:56;102685.31;;;7.15;100.00
58955;BME280;45815;52.334;5.024;2023-03-03T18:05:53;102690.69;;;6.90;100.00
58955;BME280;45815;52.334;5.024;2023-03-03T18:08:39;102688.78;;;6.87;100.00